Terminal Aerodrome Forecast
Issued by NWS

Home | Current Version | Previous Version | Text Only | Print | Product List | Glossary On
Versions: 1 2 3 4 5 6 7 8 9 10 11 12 13 14 15 16
000
FTUS45 KFGZ 211120
TAFSEZ
TAF
KSEZ 211120Z 2112/2212 05007KT P6SM BKN220
     FM211800 18014G25KT P6SM BKN210
     FM220200 20011KT P6SM SCT150 BKN200
     FM220600 VRB05KT P6SM SCT150=

USA.gov is the U.S. government's official web portal to all federal, state and local government web resources and services.